TimeCST,TemperatureF,Dew PointF,Humidity,Sea Level PressureIn,VisibilityMPH,Wind Direction,Wind SpeedMPH,Gust SpeedMPH,PrecipitationIn,Events,Conditions,WindDirDegrees,DateUTC
12:00 AM,69,58,60,29.86,12,ESE,8.1,,,,,120,2013-01-01 06:00:00
12:00 AM,69.8,59.0,68,29.99,-9999.0,ESE,8.1,-,N/A,,Clear,120,2013-01-01 06:00:00
1:00 AM,69.8,57.2,64,29.98,-9999.0,ESE,8.1,-,N/A,,Clear,110,2013-01-01 07:00:00
2:00 AM,69.8,57.2,64,29.97,-9999.0,ESE,8.1,-,N/A,,Clear,110,2013-01-01 08:00:00
3:00 AM,69,58,60,29.84,12,Calm,Calm,,,,,100,2013-01-01 09:00:00
3:00 AM,68.0,59.0,73,29.96,-9999.0,East,6.9,-,N/A,,Clear,100,2013-01-01 09:00:00
4:00 AM,68.0,59.0,73,29.96,-9999.0,ESE,9.2,-,N/A,,Clear,110,2013-01-01 10:00:00
5:00 AM,68.0,59.0,73,29.97,-9999.0,ESE,10.4,-,N/A,,Clear,110,2013-01-01 11:00:00
6:00 AM,69,59,62,29.85,12,East,8.1,,,,Scattered Clouds,100,2013-01-01 12:00:00
6:00 AM,69.8,59.0,68,29.98,6.2,East,8.1,-,N/A,,Scattered Clouds,100,2013-01-01 12:00:00
7:00 AM,69.8,59.0,68,29.99,6.2,East,10.4,-,N/A,,Scattered Clouds,100,2013-01-01 13:00:00
8:00 AM,75.2,60.8,61,30.01,6.2,East,12.7,24.2,N/A,,Scattered Clouds,100,2013-01-01 14:00:00
9:00 AM,79,58,38,29.83,12,East,13.8,,,,Scattered Clouds,100,2013-01-01 15:00:00
9:00 AM,78.8,59.0,51,30.01,6.2,East,13.8,25.3,N/A,,Scattered Clouds,100,2013-01-01 15:00:00
10:00 AM,77.0,57.2,50,30.02,6.2,East,15.0,27.6,N/A,,Scattered Clouds,80,2013-01-01 16:00:00
11:00 AM,82.4,59.0,45,29.99,6.2,ENE,16.1,-,N/A,,Scattered Clouds,70,2013-01-01 17:00:00
12:00 PM,83,58,32,29.80,12,East,12.7,,,,Scattered Clouds,80,2013-01-01 18:00:00
12:00 PM,82.4,59.0,45,29.97,6.2,East,12.7,-,N/A,,Scattered Clouds,80,2013-01-01 18:00:00
1:00 PM,82.4,59.0,45,29.95,6.2,ENE,12.7,-,N/A,,Scattered Clouds,70,2013-01-01 19:00:00
2:00 PM,82.4,59.0,45,29.93,6.2,ENE,12.7,-,N/A,,Scattered Clouds,70,2013-01-01 20:00:00
3:00 PM,82,58,34,29.74,12,East,17.3,,,,Overcast,90,2013-01-01 21:00:00
3:00 PM,82.4,59.0,45,29.91,6.2,East,17.3,-,N/A,,Mostly Cloudy,90,2013-01-01 21:00:00
4:00 PM,77.0,59.0,54,29.91,6.2,ENE,19.6,-,N/A,,Mostly Cloudy,70,2013-01-01 22:00:00
5:00 PM,75.2,60.8,61,29.93,6.2,East,16.1,-,N/A,,Mostly Cloudy,90,2013-01-01 23:00:00
6:00 PM,71,59,56,29.81,12,ESE,18.4,,,,Scattered Clouds,120,2013-01-02 00:00:00
6:00 PM,71.6,59.0,64,29.94,6.2,ESE,18.4,-,N/A,,Scattered Clouds,120,2013-01-02 00:00:00
7:00 PM,71.6,57.2,60,29.95,6.2,ESE,11.5,23.0,N/A,,Scattered Clouds,110,2013-01-02 01:00:00
8:00 PM,69.8,57.2,64,29.98,-9999.0,ESE,19.6,-,N/A,,Clear,120,2013-01-02 02:00:00
9:00 PM,69,54,50,29.83,12,ESE,8.1,,,,Scattered Clouds,110,2013-01-02 03:00:00
9:00 PM,69.8,53.6,56,29.99,-9999.0,ESE,8.1,-,N/A,,Clear,110,2013-01-02 03:00:00
10:00 PM,69.8,55.4,60,29.99,-9999.0,East,8.1,-,N/A,,Clear,100,2013-01-02 04:00:00
11:00 PM,68.0,55.4,64,29.97,-9999.0,ESE,8.1,-,N/A,,Clear,110,2013-01-02 05:00:00